createdAt,value
2019-06-07T09:28:38.520Z,23.00
2019-06-07T09:31:10.430Z,23.20
2019-06-07T09:33:37.932Z,23.30
2019-06-07T09:36:10.262Z,23.50
2019-06-07T09:38:37.408Z,23.60
2019-06-07T09:41:07.651Z,23.70
2019-06-07T09:46:12.876Z,24.00
2019-06-07T09:51:19.242Z,24.30
2019-06-07T09:53:39.630Z,24.40
2019-06-07T09:56:11.770Z,24.50
2019-06-07T09:58:54.752Z,24.60
2019-06-07T10:01:13.474Z,24.60
2019-06-07T10:03:40.723Z,24.60
2019-06-07T10:06:19.830Z,24.60
2019-06-07T10:11:19.986Z,24.50
2019-06-07T10:13:49.324Z,24.60
2019-06-07T10:16:18.146Z,24.60
2019-06-07T10:18:47.107Z,24.80
2019-06-07T10:21:16.055Z,25.00
2019-06-07T10:23:45.287Z,25.10
2019-06-07T10:26:14.095Z,25.20
2019-06-07T10:28:42.986Z,25.30
2019-06-07T10:31:11.901Z,25.50
2019-06-07T10:33:40.804Z,25.60
2019-06-07T10:36:10.724Z,25.70
2019-06-07T10:38:39.961Z,25.90
2019-06-07T10:41:09.069Z,26.00
2019-06-07T10:43:38.046Z,26.20
2019-06-07T10:46:07.662Z,26.40
2019-06-07T10:48:36.591Z,26.60
2019-06-07T10:51:06.195Z,26.70
2019-06-07T10:53:35.248Z,26.90
2019-06-07T10:56:04.878Z,26.90
2019-06-07T10:58:33.963Z,26.70
2019-06-07T11:01:03.346Z,26.70
2019-06-07T11:03:32.672Z,26.70
2019-06-07T11:06:01.600Z,26.70
2019-06-07T11:08:30.393Z,26.70
2019-06-07T11:10:59.492Z,26.60
2019-06-07T11:13:28.396Z,26.50
2019-06-07T11:15:57.286Z,26.40
2019-06-07T11:18:26.129Z,26.50
2019-06-07T11:20:55.253Z,26.70
2019-06-07T14:25:45.726Z,29.70
